Time;durP1;ratioP1;P1;durP2;ratioP2;P2;SDS_P1;SDS_P2;PMS_P1;PMS_P2;Temp;Humidity;BMP_temperature;BMP_pressure;BME280_temperature;BME280_humidity;BME280_pressure;Samples;Min_cycle;Max_cycle;Signal;HPM_P1;HPM_P2
2022/02/09 00:00:53;;;;;;;6.80;0.38;;;;;;;12.55;100.00;100310.28;5015349;28;20510;-84
2022/02/09 00:04:15;;;;;;;6.03;0.20;;;;;;;12.52;100.00;100307.66;5021103;28;20055;-85
2022/02/09 00:07:24;;;;;;;1.23;0.30;;;;;;;12.50;100.00;100307.38;5021115;28;20419;-84
2022/02/09 00:10:30;;;;;;;0.15;0.15;;;;;;;12.54;100.00;100305.19;5000597;28;20061;-85
2022/02/09 00:20:40;;;;;;;0.10;0.10;;;;;;;12.42;100.00;100303.41;5003120;28;20053;-84
2022/02/09 00:30:32;;;;;;;0.10;0.10;;;;;;;12.30;100.00;100291.22;5012743;28;20416;-85
2022/02/09 00:34:10;;;;;;;0.20;0.00;;;;;;;12.32;100.00;100293.56;5012925;28;20069;-85
2022/02/09 01:57:46;;;;;;;0.63;0.10;;;;;;;12.48;100.00;100254.00;4996405;28;20056;-84
2022/02/09 02:00:50;;;;;;;0.10;0.10;;;;;;;12.53;100.00;100253.34;5003096;28;20049;-85
2022/02/09 02:03:53;;;;;;;0.47;0.10;;;;;;;12.55;100.00;100262.03;5003367;28;20503;-85
2022/02/09 02:06:57;;;;;;;0.10;0.08;;;;;;;12.66;100.00;100242.69;5003238;28;20065;-84
2022/02/09 02:10:06;;;;;;;0.10;0.10;;;;;;;12.71;100.00;100253.19;5002031;28;20049;-84
2022/02/09 02:13:33;;;;;;;0.10;0.10;;;;;;;12.73;100.00;100256.28;5015463;28;20056;-84
2022/02/09 02:20:24;;;;;;;0.10;0.00;;;;;;;12.75;100.00;100248.19;5009837;28;20077;-85
2022/02/09 02:29:58;;;;;;;4.47;0.40;;;;;;;12.62;100.00;100230.91;5014392;28;20072;-85
2022/02/09 02:59:24;;;;;;;0.00;0.00;;;;;;;12.95;100.00;100225.91;4995210;28;20054;-85
2022/02/09 03:15:50;;;;;;;0.10;0.00;;;;;;;12.87;100.00;100210.78;5014414;28;20057;-83
2022/02/09 03:22:15;;;;;;;0.10;0.00;;;;;;;12.75;100.00;100209.84;4994352;28;20062;-84
2022/02/09 03:48:35;;;;;;;0.10;0.10;;;;;;;12.28;100.00;100206.41;4993102;28;20057;-80
2022/02/09 03:51:48;;;;;;;0.10;0.10;;;;;;;12.28;100.00;100200.81;4980707;28;20112;-81
2022/02/09 03:58:18;;;;;;;0.10;0.10;;;;;;;12.30;100.00;100190.69;5019868;28;20103;-81
2022/02/09 04:01:26;;;;;;;0.30;0.30;;;;;;;12.26;100.00;100195.69;5012636;28;20061;-81
2022/02/09 04:04:30;;;;;;;0.90;0.40;;;;;;;12.23;100.00;100196.69;5012158;28;20408;-81
2022/02/09 04:07:33;;;;;;;0.10;0.10;;;;;;;12.17;100.00;100193.75;5011664;28;20057;-80
2022/02/09 04:10:42;;;;;;;0.17;0.10;;;;;;;12.21;100.00;100192.81;4999106;28;20061;-81
2022/02/09 04:17:17;;;;;;;0.10;0.10;;;;;;;12.24;100.00;100191.84;5011962;28;20048;-80
2022/02/09 04:22:31;;;;;;;0.17;0.17;;;;;;;12.23;100.00;100190.31;5012026;28;20064;-80
2022/02/09 04:41:18;;;;;;;0.10;0.00;;;;;;;12.24;100.00;100194.63;5011421;28;20057;-80
2022/02/09 04:44:24;;;;;;;0.10;0.10;;;;;;;12.21;100.00;100203.97;5012414;28;20057;-80
2022/02/09 04:51:14;;;;;;;0.47;0.47;;;;;;;12.25;100.00;100215.72;5005366;28;20065;-80
2022/02/09 04:54:27;;;;;;;0.35;0.35;;;;;;;12.26;100.00;100228.47;5011114;28;20053;-81
2022/02/09 04:57:40;;;;;;;2.88;0.35;;;;;;;12.23;100.00;100241.34;5011713;28;20415;-81
2022/02/09 05:27:35;;;;;;;0.10;0.05;;;;;;;11.57;100.00;100267.78;5011198;28;20052;-80
2022/02/09 05:30:39;;;;;;;0.10;0.10;;;;;;;11.47;100.00;100258.69;4998956;28;20068;-80
2022/02/09 05:33:44;;;;;;;0.10;0.00;;;;;;;11.37;100.00;100259.97;4999267;28;20048;-81
2022/02/09 05:36:48;;;;;;;0.10;0.05;;;;;;;11.28;100.00;100257.22;4999056;28;20416;-81
2022/02/09 05:39:51;;;;;;;0.10;0.10;;;;;;;11.26;100.00;100279.25;4998804;28;20052;-81
2022/02/09 05:42:54;;;;;;;0.10;0.10;;;;;;;11.24;100.00;100273.34;5011106;28;20491;-81
2022/02/09 05:52:31;;;;;;;0.17;0.10;;;;;;;11.10;100.00;100285.16;5014296;28;19921;-80
2022/02/09 05:58:48;;;;;;;0.10;0.10;;;;;;;11.08;100.00;100290.44;4994795;28;20046;-81
2022/02/09 06:01:51;;;;;;;0.10;0.00;;;;;;;11.02;100.00;100283.94;4994924;28;20053;-81
2022/02/09 06:04:56;;;;;;;0.10;0.10;;;;;;;11.00;100.00;100303.16;4983081;28;20065;-80
2022/02/09 06:08:00;;;;;;;0.45;0.38;;;;;;;10.92;100.00;100308.25;4994763;28;20065;-81
2022/02/09 06:21:59;;;;;;;0.65;0.38;;;;;;;10.80;100.00;100305.66;5068750;28;20056;-81
2022/02/09 06:25:02;;;;;;;0.30;0.30;;;;;;;10.73;100.00;100297.59;5068469;28;20654;-80
2022/02/09 06:28:06;;;;;;;0.20;0.10;;;;;;;10.79;100.00;100304.09;5067852;28;20052;-80
2022/02/09 06:31:09;;;;;;;5.28;0.50;;;;;;;10.78;100.00;100302.56;5084887;28;20094;-80
2022/02/09 06:34:15;;;;;;;0.50;0.50;;;;;;;10.82;100.00;100308.75;5067432;28;20772;-80
2022/02/09 06:40:43;;;;;;;3.80;0.57;;;;;;;10.86;100.00;100317.72;5081564;28;20059;-80
2022/02/09 06:43:46;;;;;;;0.85;0.35;;;;;;;10.84;100.00;100320.97;5087605;28;20047;-80
2022/02/09 06:46:50;;;;;;;0.95;0.38;;;;;;;10.79;100.00;100316.00;5088166;28;20051;-81
2022/02/09 06:50:00;;;;;;;1.80;0.28;;;;;;;10.77;100.00;100314.94;5087075;28;20048;-81
2022/02/09 06:54:01;;;;;;;1.83;0.85;;;;;;;10.77;100.00;100320.50;5107643;28;20047;-81
2022/02/09 06:56:56;;;;;;;5.43;0.77;;;;;;;10.80;100.00;100311.22;5095003;28;20067;-81
2022/02/09 07:00:00;;;;;;;11.02;1.65;;;;;;;10.75;100.00;100306.25;5087322;28;20529;-81
2022/02/09 07:03:03;;;;;;;3.22;1.48;;;;;;;10.74;100.00;100310.31;5087839;28;20055;-80
2022/02/09 07:06:06;;;;;;;8.90;1.70;;;;;;;10.77;100.00;100314.94;5087538;28;20402;-81
2022/02/09 07:09:10;;;;;;;6.13;1.73;;;;;;;10.74;100.00;100313.09;5086722;28;20051;-80
2022/02/09 07:12:13;;;;;;;12.10;2.58;;;;;;;10.75;100.00;100315.41;5087725;28;20055;-80
2022/02/09 07:15:26;;;;;;;3.65;1.58;;;;;;;10.74;100.00;100313.09;5087745;28;20067;-80
2022/02/09 07:18:30;;;;;;;4.63;2.00;;;;;;;10.68;100.00;100316.50;5086757;28;20051;-81
2022/02/09 07:21:36;;;;;;;2.03;1.08;;;;;;;10.73;100.00;100322.66;5083312;28;20063;-82
2022/02/09 07:24:39;;;;;;;1.88;0.40;;;;;;;10.90;100.00;100329.47;5074143;28;20052;-81
2022/02/09 07:27:51;;;;;;;2.72;1.05;;;;;;;10.89;100.00;100325.94;5073109;28;20075;-82
2022/02/09 07:30:55;;;;;;;0.28;0.28;;;;;;;10.86;100.00;100320.50;5070850;28;20410;-81
2022/02/09 07:33:59;;;;;;;1.33;0.95;;;;;;;10.92;100.00;100319.41;5073837;28;20067;-81
2022/02/09 07:37:03;;;;;;;1.35;1.08;;;;;;;10.91;100.00;100308.72;5073184;28;20067;-81
2022/02/09 07:40:10;;;;;;;2.45;0.98;;;;;;;10.89;100.00;100320.34;5073524;28;20067;-81
2022/02/09 07:43:22;;;;;;;1.95;0.75;;;;;;;10.92;100.00;100327.75;5072555;28;20052;-81
2022/02/09 07:50:14;;;;;;;9.50;1.10;;;;;;;11.02;100.00;100323.72;5074884;28;20063;-81
2022/02/09 07:56:27;;;;;;;1.75;0.57;;;;;;;11.03;100.00;100325.28;5073301;28;20047;-82
2022/02/09 07:59:30;;;;;;;1.27;0.63;;;;;;;11.04;100.00;100323.25;5072132;28;20066;-81
2022/02/09 08:02:34;;;;;;;0.47;0.40;;;;;;;10.98;100.00;100322.34;5072822;28;20055;-80
2022/02/09 08:05:37;;;;;;;0.93;0.50;;;;;;;11.01;100.00;100329.75;5072769;28;20047;-81
2022/02/09 08:08:43;;;;;;;0.80;0.20;;;;;;;11.04;100.00;100329.63;5075425;28;20071;-82
2022/02/09 08:11:59;;;;;;;0.30;0.20;;;;;;;11.01;100.00;100313.03;5072164;28;20056;-82
2022/02/09 08:34:46;;;;;;;13.90;1.05;;;;;;;11.13;100.00;100348.34;5071804;28;20056;-82
2022/02/09 08:37:52;;;;;;;0.65;0.25;;;;;;;11.03;100.00;100352.38;5072093;28;20386;-81
2022/02/09 08:40:56;;;;;;;1.75;1.00;;;;;;;11.01;100.00;100354.84;5071296;28;20051;-81
2022/02/09 08:44:00;;;;;;;1.83;0.40;;;;;;;10.91;100.00;100345.75;5071803;28;20056;-82
2022/02/09 08:47:04;;;;;;;0.70;0.40;;;;;;;10.92;100.00;100360.41;5070703;28;20397;-81
2022/02/09 08:50:08;;;;;;;0.30;0.30;;;;;;;11.02;100.00;100357.16;5070005;28;20047;-81
2022/02/09 08:53:11;;;;;;;2.33;0.98;;;;;;;11.04;100.00;100360.28;5071489;28;20055;-81
2022/02/09 08:56:15;;;;;;;1.00;0.63;;;;;;;11.13;100.00;100367.84;5071247;28;20055;-81
2022/02/09 08:59:23;;;;;;;2.05;0.40;;;;;;;11.14;100.00;100374.97;5072847;28;20083;-81
2022/02/09 09:02:33;;;;;;;1.20;0.60;;;;;;;11.14;100.00;100375.75;5091369;28;20074;-81
2022/02/09 09:05:49;;;;;;;1.75;1.05;;;;;;;11.15;100.00;100382.09;5091298;28;20489;-81
2022/02/09 09:18:50;;;;;;;0.90;0.90;;;;;;;11.02;100.00;100403.78;5091913;28;20067;-81
2022/02/09 10:02:11;;;;;;;2.47;0.55;;;;;;;11.57;100.00;100412.81;5051003;28;20407;-80
2022/02/09 10:33:00;;;;;;;1.35;0.85;;;;;;;11.94;100.00;100422.66;5070995;28;20060;-80
2022/02/09 10:36:17;;;;;;;14.87;0.83;;;;;;;12.01;100.00;100423.13;5070450;28;20056;-80
2022/02/09 10:39:32;;;;;;;0.57;0.28;;;;;;;12.11;100.00;100424.59;5070053;28;20274;-80
2022/02/09 10:49:01;;;;;;;0.10;0.10;;;;;;;11.43;100.00;100442.16;5079964;27;20410;-80
2022/02/09 10:52:15;;;;;;;2.97;1.27;;;;;;;11.92;100.00;100425.94;5027772;28;20052;-79
2022/02/09 10:55:25;;;;;;;0.50;0.50;;;;;;;11.97;100.00;100425.31;5039171;28;20056;-80
2022/02/09 10:58:31;;;;;;;8.13;0.75;;;;;;;12.04;100.00;100440.94;5027456;28;20056;-82
2022/02/09 11:01:36;;;;;;;0.63;0.63;;;;;;;12.15;100.00;100444.75;5050652;28;20052;-79
2022/02/09 11:04:41;;;;;;;0.20;0.20;;;;;;;12.32;100.00;100436.00;5027749;28;20072;-79
2022/02/09 11:07:48;;;;;;;0.38;0.30;;;;;;;12.51;100.00;100448.63;5027262;28;20053;-80
2022/02/09 11:10:54;;;;;;;2.97;0.55;;;;;;;12.62;100.00;100441.25;5053157;28;20056;-80
2022/02/09 11:13:58;;;;;;;0.65;0.47;;;;;;;12.72;100.00;100450.34;5047974;28;20052;-80
2022/02/09 11:17:06;;;;;;;0.73;0.57;;;;;;;12.85;100.00;100445.28;5047162;28;20060;-80
2022/02/09 11:20:10;;;;;;;8.63;0.70;;;;;;;13.00;100.00;100442.53;5037067;28;20064;-80
2022/02/09 11:23:41;;;;;;;3.72;0.80;;;;;;;13.03;100.00;100442.38;5047077;28;20048;-80
2022/02/09 11:26:59;;;;;;;3.28;0.57;;;;;;;13.01;100.00;100450.47;5047513;28;20056;-80
2022/02/09 11:30:19;;;;;;;3.60;1.35;;;;;;;13.07;100.00;100439.41;5047134;28;20056;-80
2022/02/09 11:33:27;;;;;;;0.60;0.55;;;;;;;13.04;100.00;100445.94;5046826;28;20502;-79
2022/02/09 11:39:44;;;;;;;3.67;1.33;;;;;;;13.01;100.00;100447.66;5047597;28;20056;-80
2022/02/09 11:42:57;;;;;;;2.53;0.98;;;;;;;12.98;100.00;100456.22;5047056;28;20406;-80
2022/02/09 11:49:52;;;;;;;4.15;0.73;;;;;;;12.85;100.00;100443.28;5047172;28;20454;-79
2022/02/09 11:56:42;;;;;;;0.65;0.43;;;;;;;12.93;100.00;100455.63;5047479;28;20120;-79
2022/02/09 12:09:17;;;;;;;1.42;0.73;;;;;;;12.67;100.00;100442.59;5028112;28;20064;-80
2022/02/09 12:12:40;;;;;;;4.57;0.50;;;;;;;12.68;100.00;100444.16;5032831;28;20056;-80
2022/02/09 12:15:52;;;;;;;0.85;0.55;;;;;;;12.90;100.00;100439.81;5033606;28;20065;-80
2022/02/09 12:18:58;;;;;;;0.38;0.38;;;;;;;13.06;100.00;100441.41;5033550;28;20510;-80
2022/02/09 12:22:19;;;;;;;10.00;0.60;;;;;;;13.09;100.00;100446.06;5033668;28;20502;-80
2022/02/09 12:25:22;;;;;;;;;;;;;;;13.07;100.00;100442.19;5033186;28;20060;-79
2022/02/09 12:28:36;;;;;;;0.25;0.25;;;;;;;13.02;100.00;100446.41;5031934;28;19917;-80
2022/02/09 12:31:40;;;;;;;8.57;1.65;;;;;;;12.87;100.00;100446.34;5033567;28;20048;-80
2022/02/09 12:34:51;;;;;;;0.52;0.52;;;;;;;12.62;100.00;100446.06;5033734;28;20048;-80
2022/02/09 12:37:55;;;;;;;0.47;0.40;;;;;;;12.46;100.00;100438.09;5032446;28;20060;-80
2022/02/09 12:41:12;;;;;;;0.82;0.32;;;;;;;12.58;100.00;100442.69;5032460;28;20052;-80
2022/02/09 12:44:23;;;;;;;1.00;0.28;;;;;;;12.66;100.00;100447.44;5032465;28;20072;-80
2022/02/09 12:47:48;;;;;;;0.77;0.32;;;;;;;12.55;100.00;100440.81;5031881;28;20057;-80
2022/02/09 12:50:52;;;;;;;2.35;0.43;;;;;;;12.26;100.00;100449.06;5031975;28;20052;-80
2022/02/09 12:53:57;;;;;;;0.52;0.52;;;;;;;11.92;100.00;100448.25;5032620;28;20056;-80
2022/02/09 12:57:01;;;;;;;1.00;0.47;;;;;;;11.72;100.00;100439.63;5033008;28;20057;-80
2022/02/09 13:00:21;;;;;;;0.32;0.32;;;;;;;11.74;100.00;100436.38;5032723;28;20053;-80
2022/02/09 13:03:24;;;;;;;2.05;0.55;;;;;;;11.84;100.00;100443.47;5054437;28;20231;-80
2022/02/09 13:06:27;;;;;;;5.03;0.38;;;;;;;11.69;100.00;100439.81;5055151;28;20052;-80
2022/02/09 13:09:31;;;;;;;0.35;0.35;;;;;;;11.54;100.00;100442.44;5054655;28;20048;-80
2022/02/09 13:12:41;;;;;;;0.32;0.32;;;;;;;11.47;100.00;100442.00;5031751;28;20057;-79
2022/02/09 13:15:50;;;;;;;8.30;1.00;;;;;;;11.67;100.00;100440.28;5032346;28;20060;-79
2022/02/09 14:17:17;;;;;;;0.30;0.30;;;;;;;11.33;100.00;100454.53;5031528;28;20056;-79
2022/02/09 15:00:08;;;;;;;0.10;0.10;;;;;;;11.89;100.00;100438.03;5030563;28;20072;-80
2022/02/09 15:03:38;;;;;;;1.40;0.20;;;;;;;11.80;100.00;100431.72;5029996;28;20072;-80
2022/02/09 15:10:06;;;;;;;0.20;0.20;;;;;;;11.84;100.00;100433.09;5030641;28;20061;-80
2022/02/09 15:13:31;;;;;;;1.02;0.52;;;;;;;11.74;100.00;100425.97;5030344;28;20439;-79
2022/02/09 15:17:34;;;;;;;0.52;0.52;;;;;;;11.67;100.00;100429.13;5029755;28;20060;-79
2022/02/09 15:23:04;;;;;;;3.70;0.40;;;;;;;11.44;100.00;100418.59;5030803;28;20060;-79
2022/02/09 15:26:07;;;;;;;0.30;0.30;;;;;;;11.30;100.00;100417.22;5029936;28;20056;-79
2022/02/09 15:29:15;;;;;;;0.60;0.28;;;;;;;11.19;100.00;100418.94;5030337;28;20056;-79
2022/02/09 15:35:35;;;;;;;0.98;0.22;;;;;;;11.06;100.00;100421.13;5034194;28;20053;-80
2022/02/09 15:38:48;;;;;;;2.03;0.52;;;;;;;10.99;100.00;100427.00;5034533;28;20518;-80
2022/02/09 16:05:56;;;;;;;2.85;0.90;;;;;;;10.58;100.00;100404.06;5033060;28;20509;-81
2022/02/09 16:22:32;;;;;;;0.45;0.45;;;;;;;10.15;100.00;100389.59;5033495;28;20429;-80
2022/02/09 16:45:07;;;;;;;4.82;1.55;;;;;;;9.50;100.00;100412.78;5033367;28;20052;-78
2022/02/09 16:48:14;;;;;;;3.65;1.40;;;;;;;9.38;100.00;100396.94;5031783;28;20136;-77
2022/02/09 16:51:21;;;;;;;9.25;1.17;;;;;;;9.32;100.00;100406.31;5031812;28;20044;-78
2022/02/09 17:21:33;;;;;;;;;;;;;;;8.51;100.00;100389.78;5013344;28;19918;-82
2022/02/09 17:24:37;;;;;;;1.10;1.00;;;;;;;8.43;100.00;100397.56;5013004;28;19909;-81
2022/02/09 17:27:43;;;;;;;0.65;0.52;;;;;;;8.33;100.00;100398.69;5012245;28;20057;-80
2022/02/09 17:34:18;;;;;;;2.88;1.40;;;;;;;8.19;100.00;100401.91;5032394;28;20411;-81
2022/02/09 17:53:59;;;;;;;;;;;;;;;7.87;100.00;100411.25;5032280;28;20065;-80
2022/02/09 17:57:06;;;;;;;3.08;1.13;;;;;;;7.74;100.00;100406.91;5031292;28;20363;-80
2022/02/09 18:00:15;;;;;;;3.58;0.85;;;;;;;7.86;100.00;100408.94;5031869;28;20053;-80
2022/02/09 18:03:19;;;;;;;0.80;0.80;;;;;;;7.89;100.00;100405.25;5031289;28;20053;-79
2022/02/09 18:06:28;;;;;;;1.20;0.85;;;;;;;7.89;100.00;100410.78;5031343;28;20056;-79
2022/02/09 18:09:42;;;;;;;2.95;0.73;;;;;;;7.85;100.00;100408.16;5030946;28;20061;-80
2022/02/09 18:13:20;;;;;;;0.60;0.60;;;;;;;7.86;100.00;100408.94;5030507;28;20406;-79
2022/02/09 18:56:51;;;;;;;1.15;0.82;;;;;;;8.12;100.00;100416.03;5030482;28;20049;-79
2022/02/09 19:05:43;;;;;;;1.80;1.25;;;;;;;8.16;100.00;100427.78;5030821;28;20443;-81
2022/02/09 19:15:43;;;;;;;4.47;0.95;;;;;;;8.02;100.00;100420.69;5034936;28;20060;-80
2022/02/09 19:48:35;;;;;;;2.47;1.33;;;;;;;7.34;100.00;100412.06;5013754;28;20057;-80
2022/02/09 19:58:13;;;;;;;14.38;1.58;;;;;;;7.13;100.00;100412.66;5031293;28;20060;-81
2022/02/09 20:01:19;;;;;;;4.53;1.77;;;;;;;7.12;100.00;100411.91;5024762;28;20053;-80
2022/02/09 20:04:22;;;;;;;4.22;1.33;;;;;;;7.13;100.00;100407.91;5020889;28;20049;-81
2022/02/09 20:07:25;;;;;;;2.42;1.55;;;;;;;7.05;100.00;100401.03;5018153;28;20064;-80
2022/02/09 20:10:30;;;;;;;1.52;1.13;;;;;;;6.98;100.00;100403.97;5030509;28;20057;-84
2022/02/09 20:13:34;;;;;;;4.57;1.15;;;;;;;6.90;100.00;100416.47;5034420;28;20068;-80
2022/02/09 20:16:39;;;;;;;2.08;0.90;;;;;;;6.84;100.00;100407.16;5033392;28;20049;-82
2022/02/09 20:19:48;;;;;;;3.13;1.17;;;;;;;6.83;100.00;100400.06;5015284;28;20540;-81
2022/02/09 20:22:53;;;;;;;1.35;0.75;;;;;;;6.84;100.00;100396.84;5014639;28;20514;-84
2022/02/09 20:25:58;;;;;;;5.07;1.95;;;;;;;6.79;100.00;100396.59;5033265;28;20056;-82
2022/02/09 20:29:11;;;;;;;6.53;0.98;;;;;;;6.78;100.00;100408.88;5032140;28;20503;-80
2022/02/09 20:32:17;;;;;;;3.05;1.52;;;;;;;6.87;100.00;100409.03;5013014;28;20061;-79
2022/02/09 20:35:22;;;;;;;17.70;2.00;;;;;;;6.87;100.00;100406.25;5013330;28;20499;-80
2022/02/09 20:38:28;;;;;;;5.95;1.50;;;;;;;6.86;100.00;100407.50;5014487;28;20057;-84
2022/02/09 20:41:34;;;;;;;3.28;2.38;;;;;;;6.82;100.00;100392.97;5032695;28;20510;-83
2022/02/09 20:44:44;;;;;;;1.75;0.57;;;;;;;6.83;100.00;100388.97;5032363;28;20064;-80
2022/02/09 20:47:49;;;;;;;0.80;0.75;;;;;;;6.88;100.00;100399.53;5032720;28;20056;-81
2022/02/09 20:50:58;;;;;;;2.63;1.00;;;;;;;6.85;100.00;100392.09;5032978;28;20057;-81
2022/02/09 20:54:02;;;;;;;5.05;1.75;;;;;;;6.84;100.00;100401.63;5031785;28;20056;-80
2022/02/09 20:57:05;;;;;;;5.90;1.13;;;;;;;6.81;100.00;100392.19;5032165;28;20057;-80
2022/02/09 21:00:16;;;;;;;1.10;0.60;;;;;;;6.79;100.00;100393.84;5031571;28;20080;-81
2022/02/09 21:03:42;;;;;;;0.70;0.70;;;;;;;6.84;100.00;100398.84;5033007;28;20502;-81
2022/02/09 21:10:16;;;;;;;9.35;0.88;;;;;;;6.97;100.00;100398.91;5032886;28;20052;-79
2022/02/09 21:49:20;;;;;;;2.15;0.55;;;;;;;7.56;100.00;100397.13;5032210;28;20056;-82
2022/02/09 21:51:50;;;;;;;1.77;0.57;;;;;;;7.62;100.00;100389.81;5031723;28;20056;-81
2022/02/09 21:57:34;;;;;;;3.80;1.08;;;;;;;7.69;100.00;100391.59;5031912;28;20056;-82
2022/02/09 22:01:02;;;;;;;10.98;1.45;;;;;;;7.76;100.00;100376.75;5030542;28;20056;-81
2022/02/09 22:16:20;;;;;;;1.73;0.80;;;;;;;7.78;100.00;100368.75;5031728;28;20048;-82
2022/02/09 22:21:31;;;;;;;0.28;0.25;;;;;;;7.90;100.00;100376.31;5031038;28;20553;-82
2022/02/09 22:28:01;;;;;;;6.28;1.00;;;;;;;7.86;100.00;100372.88;5031390;28;20064;-81
2022/02/09 22:57:09;;;;;;;4.32;0.93;;;;;;;7.72;100.00;100342.81;5031879;28;20239;-87
2022/02/09 23:00:39;;;;;;;2.72;1.27;;;;;;;7.75;100.00;100336.41;5023325;28;20052;-83
2022/02/09 23:13:52;;;;;;;8.65;2.42;;;;;;;7.69;100.00;100332.63;5028206;28;20068;-84
